sensor_id;sensor_type;location;lat;lon;timestamp;P1;durP1;ratioP1;P2;durP2;ratioP2
55254;SDS011;41118;44.634;11.182;2023-07-24T00:00:24;10.30;;;2.33;;
55254;SDS011;41118;44.634;11.182;2023-07-24T00:02:50;8.40;;;2.03;;
55254;SDS011;41118;44.634;11.182;2023-07-24T00:05:18;9.30;;;2.17;;
55254;SDS011;41118;44.634;11.182;2023-07-24T00:07:45;8.65;;;3.10;;
55254;SDS011;41118;44.634;11.182;2023-07-24T00:10:11;8.85;;;2.38;;
55254;SDS011;41118;44.634;11.182;2023-07-24T00:12:37;7.75;;;1.75;;
55254;SDS011;41118;44.634;11.182;2023-07-24T00:15:03;11.13;;;2.03;;
55254;SDS011;41118;44.634;11.182;2023-07-24T00:17:29;13.50;;;3.17;;
55254;SDS011;41118;44.634;11.182;2023-07-24T00:19:55;9.43;;;1.95;;
55254;SDS011;41118;44.634;11.182;2023-07-24T00:22:21;9.60;;;2.30;;
55254;SDS011;41118;44.634;11.182;2023-07-24T00:24:47;8.77;;;2.40;;
55254;SDS011;41118;44.634;11.182;2023-07-24T00:27:13;14.23;;;2.53;;
55254;SDS011;41118;44.634;11.182;2023-07-24T00:29:40;9.98;;;1.70;;
55254;SDS011;41118;44.634;11.182;2023-07-24T00:32:06;9.13;;;1.63;;
55254;SDS011;41118;44.634;11.182;2023-07-24T00:34:32;11.32;;;3.33;;
55254;SDS011;41118;44.634;11.182;2023-07-24T00:36:58;11.27;;;2.60;;
55254;SDS011;41118;44.634;11.182;2023-07-24T00:39:24;9.18;;;1.52;;
55254;SDS011;41118;44.634;11.182;2023-07-24T00:41:53;6.45;;;2.33;;
55254;SDS011;41118;44.634;11.182;2023-07-24T00:44:19;10.30;;;2.63;;
55254;SDS011;41118;44.634;11.182;2023-07-24T00:46:45;13.63;;;3.70;;
55254;SDS011;41118;44.634;11.182;2023-07-24T00:49:11;13.15;;;2.90;;
55254;SDS011;41118;44.634;11.182;2023-07-24T00:51:38;10.43;;;2.63;;
55254;SDS011;41118;44.634;11.182;2023-07-24T00:54:04;9.52;;;1.95;;
55254;SDS011;41118;44.634;11.182;2023-07-24T00:56:31;9.43;;;2.67;;
55254;SDS011;41118;44.634;11.182;2023-07-24T00:58:59;10.63;;;1.70;;
55254;SDS011;41118;44.634;11.182;2023-07-24T01:01:25;7.05;;;2.35;;
55254;SDS011;41118;44.634;11.182;2023-07-24T01:03:51;10.43;;;2.83;;
55254;SDS011;41118;44.634;11.182;2023-07-24T01:06:18;16.27;;;3.40;;
55254;SDS011;41118;44.634;11.182;2023-07-24T01:08:44;12.75;;;2.67;;
55254;SDS011;41118;44.634;11.182;2023-07-24T01:11:21;11.38;;;3.30;;
55254;SDS011;41118;44.634;11.182;2023-07-24T01:14:08;12.02;;;2.15;;
55254;SDS011;41118;44.634;11.182;2023-07-24T01:16:39;14.48;;;3.25;;
55254;SDS011;41118;44.634;11.182;2023-07-24T01:19:20;11.60;;;2.95;;
55254;SDS011;41118;44.634;11.182;2023-07-24T01:21:58;13.02;;;2.65;;
55254;SDS011;41118;44.634;11.182;2023-07-24T01:24:33;10.38;;;3.33;;
55254;SDS011;41118;44.634;11.182;2023-07-24T01:27:02;15.13;;;2.40;;
55254;SDS011;41118;44.634;11.182;2023-07-24T01:29:29;12.30;;;3.83;;
55254;SDS011;41118;44.634;11.182;2023-07-24T01:31:54;12.85;;;2.65;;
55254;SDS011;41118;44.634;11.182;2023-07-24T01:34:21;11.55;;;2.92;;
55254;SDS011;41118;44.634;11.182;2023-07-24T01:36:47;10.18;;;3.58;;
55254;SDS011;41118;44.634;11.182;2023-07-24T01:39:14;13.63;;;2.20;;
55254;SDS011;41118;44.634;11.182;2023-07-24T01:41:41;12.93;;;2.72;;
55254;SDS011;41118;44.634;11.182;2023-07-24T01:44:07;10.65;;;3.28;;
55254;SDS011;41118;44.634;11.182;2023-07-24T01:46:34;10.00;;;3.08;;
55254;SDS011;41118;44.634;11.182;2023-07-24T01:49:00;12.05;;;3.55;;
55254;SDS011;41118;44.634;11.182;2023-07-24T01:51:26;11.35;;;2.55;;
55254;SDS011;41118;44.634;11.182;2023-07-24T01:53:52;10.65;;;2.05;;
55254;SDS011;41118;44.634;11.182;2023-07-24T01:56:19;10.18;;;2.30;;
55254;SDS011;41118;44.634;11.182;2023-07-24T01:58:45;9.63;;;2.58;;
55254;SDS011;41118;44.634;11.182;2023-07-24T02:01:11;9.20;;;2.53;;
55254;SDS011;41118;44.634;11.182;2023-07-24T02:03:39;10.95;;;2.83;;
55254;SDS011;41118;44.634;11.182;2023-07-24T02:06:05;11.77;;;3.53;;
55254;SDS011;41118;44.634;11.182;2023-07-24T02:08:31;16.55;;;4.15;;
55254;SDS011;41118;44.634;11.182;2023-07-24T02:10:57;12.32;;;2.13;;
55254;SDS011;41118;44.634;11.182;2023-07-24T02:13:24;10.52;;;2.60;;
55254;SDS011;41118;44.634;11.182;2023-07-24T02:15:50;9.90;;;2.40;;
55254;SDS011;41118;44.634;11.182;2023-07-24T02:18:18;14.57;;;3.60;;
55254;SDS011;41118;44.634;11.182;2023-07-24T02:20:48;10.25;;;3.15;;
55254;SDS011;41118;44.634;11.182;2023-07-24T02:23:15;10.93;;;2.15;;
55254;SDS011;41118;44.634;11.182;2023-07-24T02:25:41;9.23;;;2.58;;
55254;SDS011;41118;44.634;11.182;2023-07-24T02:28:08;9.50;;;2.67;;
55254;SDS011;41118;44.634;11.182;2023-07-24T02:30:37;10.25;;;2.88;;
55254;SDS011;41118;44.634;11.182;2023-07-24T02:33:04;9.55;;;2.55;;
55254;SDS011;41118;44.634;11.182;2023-07-24T02:35:30;10.68;;;2.28;;
55254;SDS011;41118;44.634;11.182;2023-07-24T02:37:56;12.23;;;2.80;;
55254;SDS011;41118;44.634;11.182;2023-07-24T02:40:23;8.77;;;2.85;;
55254;SDS011;41118;44.634;11.182;2023-07-24T02:42:49;10.20;;;3.25;;
55254;SDS011;41118;44.634;11.182;2023-07-24T02:45:15;16.27;;;3.97;;
55254;SDS011;41118;44.634;11.182;2023-07-24T02:47:41;9.98;;;2.75;;
55254;SDS011;41118;44.634;11.182;2023-07-24T02:50:08;10.95;;;2.50;;
55254;SDS011;41118;44.634;11.182;2023-07-24T02:52:34;13.70;;;3.10;;
55254;SDS011;41118;44.634;11.182;2023-07-24T02:55:00;16.05;;;4.38;;
55254;SDS011;41118;44.634;11.182;2023-07-24T02:57:26;9.55;;;3.05;;
55254;SDS011;41118;44.634;11.182;2023-07-24T02:59:52;9.70;;;2.53;;
55254;SDS011;41118;44.634;11.182;2023-07-24T03:02:18;7.68;;;1.33;;
55254;SDS011;41118;44.634;11.182;2023-07-24T03:04:44;11.30;;;2.05;;
55254;SDS011;41118;44.634;11.182;2023-07-24T03:07:10;6.80;;;1.30;;
55254;SDS011;41118;44.634;11.182;2023-07-24T03:09:36;11.90;;;1.45;;
55254;SDS011;41118;44.634;11.182;2023-07-24T03:12:02;13.20;;;2.78;;
55254;SDS011;41118;44.634;11.182;2023-07-24T03:14:28;11.15;;;1.98;;
55254;SDS011;41118;44.634;11.182;2023-07-24T03:16:55;10.65;;;3.00;;
55254;SDS011;41118;44.634;11.182;2023-07-24T03:19:21;10.73;;;2.28;;
55254;SDS011;41118;44.634;11.182;2023-07-24T03:21:47;14.25;;;2.47;;
55254;SDS011;41118;44.634;11.182;2023-07-24T03:24:13;13.80;;;1.77;;
55254;SDS011;41118;44.634;11.182;2023-07-24T03:26:39;12.88;;;3.42;;
55254;SDS011;41118;44.634;11.182;2023-07-24T03:29:05;7.93;;;1.85;;
55254;SDS011;41118;44.634;11.182;2023-07-24T03:31:31;9.02;;;2.17;;
55254;SDS011;41118;44.634;11.182;2023-07-24T03:33:58;10.10;;;2.72;;
55254;SDS011;41118;44.634;11.182;2023-07-24T03:36:24;12.25;;;2.78;;
55254;SDS011;41118;44.634;11.182;2023-07-24T03:38:50;12.40;;;3.58;;
55254;SDS011;41118;44.634;11.182;2023-07-24T03:41:16;13.27;;;2.58;;
55254;SDS011;41118;44.634;11.182;2023-07-24T03:43:42;10.90;;;2.47;;
55254;SDS011;41118;44.634;11.182;2023-07-24T03:46:09;14.20;;;2.38;;
55254;SDS011;41118;44.634;11.182;2023-07-24T03:48:35;10.30;;;3.20;;
55254;SDS011;41118;44.634;11.182;2023-07-24T03:51:01;12.35;;;2.10;;
55254;SDS011;41118;44.634;11.182;2023-07-24T03:53:27;10.07;;;2.65;;
55254;SDS011;41118;44.634;11.182;2023-07-24T03:55:54;9.73;;;2.55;;
55254;SDS011;41118;44.634;11.182;2023-07-24T03:58:20;13.30;;;2.35;;
55254;SDS011;41118;44.634;11.182;2023-07-24T04:00:46;11.13;;;3.33;;
55254;SDS011;41118;44.634;11.182;2023-07-24T04:03:12;7.50;;;3.17;;
55254;SDS011;41118;44.634;11.182;2023-07-24T04:05:38;12.73;;;2.58;;
55254;SDS011;41118;44.634;11.182;2023-07-24T04:08:04;8.80;;;1.73;;
55254;SDS011;41118;44.634;11.182;2023-07-24T04:10:31;12.18;;;3.65;;
55254;SDS011;41118;44.634;11.182;2023-07-24T04:12:57;13.00;;;3.00;;
55254;SDS011;41118;44.634;11.182;2023-07-24T04:15:23;8.55;;;1.20;;
55254;SDS011;41118;44.634;11.182;2023-07-24T04:17:49;7.40;;;2.00;;
55254;SDS011;41118;44.634;11.182;2023-07-24T04:20:15;9.85;;;2.65;;
55254;SDS011;41118;44.634;11.182;2023-07-24T04:22:41;10.68;;;2.25;;
55254;SDS011;41118;44.634;11.182;2023-07-24T04:25:07;13.35;;;2.45;;
55254;SDS011;41118;44.634;11.182;2023-07-24T04:27:33;10.77;;;1.60;;
55254;SDS011;41118;44.634;11.182;2023-07-24T04:29:59;9.43;;;2.03;;
55254;SDS011;41118;44.634;11.182;2023-07-24T04:32:26;14.77;;;3.25;;
55254;SDS011;41118;44.634;11.182;2023-07-24T04:34:53;13.75;;;1.73;;
55254;SDS011;41118;44.634;11.182;2023-07-24T04:37:19;7.70;;;1.15;;
55254;SDS011;41118;44.634;11.182;2023-07-24T04:39:45;10.80;;;2.45;;
55254;SDS011;41118;44.634;11.182;2023-07-24T04:42:11;9.85;;;2.60;;
55254;SDS011;41118;44.634;11.182;2023-07-24T04:44:37;9.77;;;1.50;;
55254;SDS011;41118;44.634;11.182;2023-07-24T04:47:03;10.20;;;3.10;;
55254;SDS011;41118;44.634;11.182;2023-07-24T04:49:29;14.00;;;4.47;;
55254;SDS011;41118;44.634;11.182;2023-07-24T04:51:56;11.23;;;3.47;;
55254;SDS011;41118;44.634;11.182;2023-07-24T04:54:22;12.45;;;2.80;;
55254;SDS011;41118;44.634;11.182;2023-07-24T04:56:48;16.67;;;3.63;;
55254;SDS011;41118;44.634;11.182;2023-07-24T04:59:14;13.63;;;3.40;;
55254;SDS011;41118;44.634;11.182;2023-07-24T05:01:40;15.20;;;5.22;;
55254;SDS011;41118;44.634;11.182;2023-07-24T05:04:07;13.00;;;3.40;;
55254;SDS011;41118;44.634;11.182;2023-07-24T05:06:33;16.48;;;4.60;;
55254;SDS011;41118;44.634;11.182;2023-07-24T05:09:00;17.75;;;4.97;;
55254;SDS011;41118;44.634;11.182;2023-07-24T05:11:27;15.70;;;3.80;;
55254;SDS011;41118;44.634;11.182;2023-07-24T05:13:53;16.33;;;4.88;;
55254;SDS011;41118;44.634;11.182;2023-07-24T05:16:19;21.17;;;5.65;;
55254;SDS011;41118;44.634;11.182;2023-07-24T05:18:45;21.15;;;4.28;;
55254;SDS011;41118;44.634;11.182;2023-07-24T05:21:11;17.35;;;4.95;;
55254;SDS011;41118;44.634;11.182;2023-07-24T05:23:37;13.15;;;3.35;;
55254;SDS011;41118;44.634;11.182;2023-07-24T05:26:03;12.10;;;4.32;;
55254;SDS011;41118;44.634;11.182;2023-07-24T05:28:30;22.05;;;5.35;;
55254;SDS011;41118;44.634;11.182;2023-07-24T05:31:00;11.40;;;4.55;;
55254;SDS011;41118;44.634;11.182;2023-07-24T05:33:27;11.55;;;3.92;;
55254;SDS011;41118;44.634;11.182;2023-07-24T05:36:00;15.18;;;4.72;;
55254;SDS011;41118;44.634;11.182;2023-07-24T05:38:26;17.50;;;4.95;;
55254;SDS011;41118;44.634;11.182;2023-07-24T05:40:58;16.35;;;4.38;;
55254;SDS011;41118;44.634;11.182;2023-07-24T05:43:25;14.33;;;4.07;;
55254;SDS011;41118;44.634;11.182;2023-07-24T05:45:51;19.65;;;4.03;;
55254;SDS011;41118;44.634;11.182;2023-07-24T05:48:17;18.02;;;5.97;;
55254;SDS011;41118;44.634;11.182;2023-07-24T05:50:43;12.57;;;4.80;;
55254;SDS011;41118;44.634;11.182;2023-07-24T05:53:09;20.67;;;6.32;;
55254;SDS011;41118;44.634;11.182;2023-07-24T05:55:35;15.77;;;5.50;;
55254;SDS011;41118;44.634;11.182;2023-07-24T05:58:01;15.07;;;4.60;;
55254;SDS011;41118;44.634;11.182;2023-07-24T06:00:28;12.75;;;4.38;;
55254;SDS011;41118;44.634;11.182;2023-07-24T06:02:54;24.13;;;5.40;;
55254;SDS011;41118;44.634;11.182;2023-07-24T06:05:20;16.45;;;6.05;;
55254;SDS011;41118;44.634;11.182;2023-07-24T06:07:47;18.17;;;4.22;;
55254;SDS011;41118;44.634;11.182;2023-07-24T06:10:13;16.88;;;5.40;;
55254;SDS011;41118;44.634;11.182;2023-07-24T06:12:39;16.67;;;4.65;;
55254;SDS011;41118;44.634;11.182;2023-07-24T06:15:06;32.13;;;8.43;;
55254;SDS011;41118;44.634;11.182;2023-07-24T06:17:32;12.77;;;4.70;;
55254;SDS011;41118;44.634;11.182;2023-07-24T06:19:59;15.23;;;3.95;;
55254;SDS011;41118;44.634;11.182;2023-07-24T06:22:25;17.80;;;6.22;;
55254;SDS011;41118;44.634;11.182;2023-07-24T06:24:51;19.40;;;4.18;;
55254;SDS011;41118;44.634;11.182;2023-07-24T06:27:18;12.15;;;3.30;;
55254;SDS011;41118;44.634;11.182;2023-07-24T06:29:44;14.43;;;3.92;;
55254;SDS011;41118;44.634;11.182;2023-07-24T06:32:10;19.95;;;5.32;;
55254;SDS011;41118;44.634;11.182;2023-07-24T06:34:36;10.32;;;2.85;;
55254;SDS011;41118;44.634;11.182;2023-07-24T06:37:02;20.92;;;5.13;;
55254;SDS011;41118;44.634;11.182;2023-07-24T06:39:28;9.98;;;3.50;;
55254;SDS011;41118;44.634;11.182;2023-07-24T06:41:54;8.90;;;2.40;;
55254;SDS011;41118;44.634;11.182;2023-07-24T06:44:21;26.27;;;4.55;;
55254;SDS011;41118;44.634;11.182;2023-07-24T06:46:47;14.00;;;3.42;;
55254;SDS011;41118;44.634;11.182;2023-07-24T06:49:13;19.35;;;3.75;;
55254;SDS011;41118;44.634;11.182;2023-07-24T06:51:39;13.80;;;3.38;;
55254;SDS011;41118;44.634;11.182;2023-07-24T06:54:05;14.32;;;4.43;;
55254;SDS011;41118;44.634;11.182;2023-07-24T06:56:32;15.80;;;3.40;;
55254;SDS011;41118;44.634;11.182;2023-07-24T06:58:58;12.95;;;3.85;;
55254;SDS011;41118;44.634;11.182;2023-07-24T07:01:24;11.05;;;2.42;;
55254;SDS011;41118;44.634;11.182;2023-07-24T07:03:50;15.90;;;4.45;;
55254;SDS011;41118;44.634;11.182;2023-07-24T07:06:16;13.15;;;3.20;;
55254;SDS011;41118;44.634;11.182;2023-07-24T07:08:42;13.82;;;3.40;;
55254;SDS011;41118;44.634;11.182;2023-07-24T07:11:08;12.77;;;4.10;;
55254;SDS011;41118;44.634;11.182;2023-07-24T07:13:34;14.77;;;4.38;;
55254;SDS011;41118;44.634;11.182;2023-07-24T07:16:00;16.45;;;5.45;;
55254;SDS011;41118;44.634;11.182;2023-07-24T07:18:27;17.35;;;4.18;;
55254;SDS011;41118;44.634;11.182;2023-07-24T07:20:53;9.30;;;3.50;;
55254;SDS011;41118;44.634;11.182;2023-07-24T07:23:20;9.90;;;4.10;;
55254;SDS011;41118;44.634;11.182;2023-07-24T07:25:46;13.38;;;3.60;;
55254;SDS011;41118;44.634;11.182;2023-07-24T07:28:13;12.18;;;2.05;;
55254;SDS011;41118;44.634;11.182;2023-07-24T07:30:39;10.00;;;2.38;;
55254;SDS011;41118;44.634;11.182;2023-07-24T07:33:05;10.23;;;2.60;;
55254;SDS011;41118;44.634;11.182;2023-07-24T07:35:34;12.55;;;2.63;;
55254;SDS011;41118;44.634;11.182;2023-07-24T07:38:01;10.15;;;2.55;;
55254;SDS011;41118;44.634;11.182;2023-07-24T07:40:27;14.45;;;2.65;;
55254;SDS011;41118;44.634;11.182;2023-07-24T07:42:54;8.98;;;2.08;;
55254;SDS011;41118;44.634;11.182;2023-07-24T07:45:20;16.27;;;2.90;;
55254;SDS011;41118;44.634;11.182;2023-07-24T07:47:46;11.15;;;3.25;;
55254;SDS011;41118;44.634;11.182;2023-07-24T07:50:12;11.45;;;3.15;;
55254;SDS011;41118;44.634;11.182;2023-07-24T07:52:39;11.90;;;2.72;;
55254;SDS011;41118;44.634;11.182;2023-07-24T07:55:05;14.15;;;4.25;;
55254;SDS011;41118;44.634;11.182;2023-07-24T07:57:34;14.45;;;4.07;;
55254;SDS011;41118;44.634;11.182;2023-07-24T08:00:00;23.48;;;4.78;;
55254;SDS011;41118;44.634;11.182;2023-07-24T08:02:26;12.90;;;4.20;;
55254;SDS011;41118;44.634;11.182;2023-07-24T08:04:52;10.85;;;3.40;;
55254;SDS011;41118;44.634;11.182;2023-07-24T08:07:18;19.67;;;6.45;;
55254;SDS011;41118;44.634;11.182;2023-07-24T08:09:45;17.58;;;6.93;;
55254;SDS011;41118;44.634;11.182;2023-07-24T08:12:12;14.18;;;5.45;;
55254;SDS011;41118;44.634;11.182;2023-07-24T08:14:38;17.08;;;5.28;;
55254;SDS011;41118;44.634;11.182;2023-07-24T08:17:04;24.02;;;6.22;;
55254;SDS011;41118;44.634;11.182;2023-07-24T08:19:30;15.95;;;5.45;;
55254;SDS011;41118;44.634;11.182;2023-07-24T08:21:56;10.07;;;3.47;;
55254;SDS011;41118;44.634;11.182;2023-07-24T08:24:22;11.50;;;4.28;;
55254;SDS011;41118;44.634;11.182;2023-07-24T08:26:48;13.02;;;3.22;;
55254;SDS011;41118;44.634;11.182;2023-07-24T08:29:14;8.50;;;2.33;;
55254;SDS011;41118;44.634;11.182;2023-07-24T08:31:41;9.50;;;3.13;;
55254;SDS011;41118;44.634;11.182;2023-07-24T08:34:07;10.45;;;2.22;;
55254;SDS011;41118;44.634;11.182;2023-07-24T08:36:33;10.48;;;2.72;;
55254;SDS011;41118;44.634;11.182;2023-07-24T08:38:59;10.85;;;2.90;;
55254;SDS011;41118;44.634;11.182;2023-07-24T08:41:26;15.48;;;3.03;;
55254;SDS011;41118;44.634;11.182;2023-07-24T08:43:52;10.70;;;3.35;;
55254;SDS011;41118;44.634;11.182;2023-07-24T08:46:18;11.55;;;2.38;;
55254;SDS011;41118;44.634;11.182;2023-07-24T08:48:45;10.77;;;2.28;;
55254;SDS011;41118;44.634;11.182;2023-07-24T08:51:12;12.85;;;2.30;;
55254;SDS011;41118;44.634;11.182;2023-07-24T08:53:39;5.05;;;1.88;;
55254;SDS011;41118;44.634;11.182;2023-07-24T08:56:07;6.70;;;2.08;;
55254;SDS011;41118;44.634;11.182;2023-07-24T08:58:33;11.40;;;2.70;;
55254;SDS011;41118;44.634;11.182;2023-07-24T09:01:00;11.55;;;2.75;;
55254;SDS011;41118;44.634;11.182;2023-07-24T09:03:26;6.45;;;1.40;;
55254;SDS011;41118;44.634;11.182;2023-07-24T09:05:53;11.18;;;0.98;;
55254;SDS011;41118;44.634;11.182;2023-07-24T09:08:32;8.88;;;1.58;;
55254;SDS011;41118;44.634;11.182;2023-07-24T09:10:59;11.45;;;3.13;;
55254;SDS011;41118;44.634;11.182;2023-07-24T09:13:25;12.32;;;2.83;;
55254;SDS011;41118;44.634;11.182;2023-07-24T09:15:51;12.10;;;2.05;;
55254;SDS011;41118;44.634;11.182;2023-07-24T09:18:17;15.73;;;3.13;;
55254;SDS011;41118;44.634;11.182;2023-07-24T09:20:44;14.07;;;2.58;;
55254;SDS011;41118;44.634;11.182;2023-07-24T09:23:11;10.18;;;2.40;;
55254;SDS011;41118;44.634;11.182;2023-07-24T09:25:38;9.93;;;2.47;;
55254;SDS011;41118;44.634;11.182;2023-07-24T09:28:17;11.60;;;3.20;;
55254;SDS011;41118;44.634;11.182;2023-07-24T09:30:53;10.20;;;3.05;;
55254;SDS011;41118;44.634;11.182;2023-07-24T09:33:20;12.02;;;3.83;;
55254;SDS011;41118;44.634;11.182;2023-07-24T09:35:56;6.10;;;2.58;;
55254;SDS011;41118;44.634;11.182;2023-07-24T09:38:23;10.43;;;2.95;;
55254;SDS011;41118;44.634;11.182;2023-07-24T09:40:49;14.98;;;4.68;;
55254;SDS011;41118;44.634;11.182;2023-07-24T09:43:18;14.77;;;2.70;;
55254;SDS011;41118;44.634;11.182;2023-07-24T09:45:44;14.48;;;3.67;;
55254;SDS011;41118;44.634;11.182;2023-07-24T09:48:11;14.65;;;4.80;;
55254;SDS011;41118;44.634;11.182;2023-07-24T09:50:39;15.82;;;4.25;;
55254;SDS011;41118;44.634;11.182;2023-07-24T09:53:06;14.30;;;4.70;;
55254;SDS011;41118;44.634;11.182;2023-07-24T09:55:35;18.23;;;5.55;;
55254;SDS011;41118;44.634;11.182;2023-07-24T09:58:04;16.67;;;5.95;;
55254;SDS011;41118;44.634;11.182;2023-07-24T10:00:30;23.70;;;11.27;;
55254;SDS011;41118;44.634;11.182;2023-07-24T10:02:57;19.30;;;8.50;;
55254;SDS011;41118;44.634;11.182;2023-07-24T10:05:24;25.40;;;10.68;;
55254;SDS011;41118;44.634;11.182;2023-07-24T10:07:51;23.05;;;8.85;;
55254;SDS011;41118;44.634;11.182;2023-07-24T10:10:17;26.25;;;9.77;;
55254;SDS011;41118;44.634;11.182;2023-07-24T10:12:43;18.40;;;6.22;;
55254;SDS011;41118;44.634;11.182;2023-07-24T10:15:10;12.48;;;5.65;;
55254;SDS011;41118;44.634;11.182;2023-07-24T10:17:37;15.80;;;5.25;;
55254;SDS011;41118;44.634;11.182;2023-07-24T10:20:03;20.08;;;5.70;;
55254;SDS011;41118;44.634;11.182;2023-07-24T10:22:29;19.48;;;8.55;;
55254;SDS011;41118;44.634;11.182;2023-07-24T10:24:56;13.52;;;4.00;;
55254;SDS011;41118;44.634;11.182;2023-07-24T10:27:25;19.67;;;4.07;;
55254;SDS011;41118;44.634;11.182;2023-07-24T10:29:59;18.02;;;4.00;;
55254;SDS011;41118;44.634;11.182;2023-07-24T10:32:25;13.57;;;3.55;;
55254;SDS011;41118;44.634;11.182;2023-07-24T10:34:56;14.90;;;4.57;;
55254;SDS011;41118;44.634;11.182;2023-07-24T10:37:30;15.38;;;3.33;;
55254;SDS011;41118;44.634;11.182;2023-07-24T10:39:56;13.35;;;4.20;;
55254;SDS011;41118;44.634;11.182;2023-07-24T10:42:22;16.55;;;4.20;;
55254;SDS011;41118;44.634;11.182;2023-07-24T10:44:48;10.88;;;2.80;;
55254;SDS011;41118;44.634;11.182;2023-07-24T10:47:14;11.43;;;2.45;;
55254;SDS011;41118;44.634;11.182;2023-07-24T10:49:50;12.85;;;3.35;;
55254;SDS011;41118;44.634;11.182;2023-07-24T10:52:16;9.90;;;2.72;;
55254;SDS011;41118;44.634;11.182;2023-07-24T10:54:42;9.43;;;2.78;;
55254;SDS011;41118;44.634;11.182;2023-07-24T10:57:08;11.80;;;2.42;;
55254;SDS011;41118;44.634;11.182;2023-07-24T10:59:38;11.52;;;3.20;;
55254;SDS011;41118;44.634;11.182;2023-07-24T11:02:04;12.15;;;3.35;;
55254;SDS011;41118;44.634;11.182;2023-07-24T11:04:31;13.15;;;2.72;;
55254;SDS011;41118;44.634;11.182;2023-07-24T11:06:59;16.55;;;3.40;;
55254;SDS011;41118;44.634;11.182;2023-07-24T11:09:35;13.98;;;2.70;;
55254;SDS011;41118;44.634;11.182;2023-07-24T11:12:11;10.65;;;3.45;;
55254;SDS011;41118;44.634;11.182;2023-07-24T11:14:48;12.18;;;2.70;;
55254;SDS011;41118;44.634;11.182;2023-07-24T11:17:14;13.45;;;3.05;;
55254;SDS011;41118;44.634;11.182;2023-07-24T11:19:40;8.90;;;2.55;;
55254;SDS011;41118;44.634;11.182;2023-07-24T11:22:06;9.43;;;3.60;;
55254;SDS011;41118;44.634;11.182;2023-07-24T11:24:33;11.00;;;3.17;;
55254;SDS011;41118;44.634;11.182;2023-07-24T11:26:59;10.68;;;3.22;;
55254;SDS011;41118;44.634;11.182;2023-07-24T11:29:25;10.02;;;3.88;;
55254;SDS011;41118;44.634;11.182;2023-07-24T11:31:54;15.82;;;2.88;;
55254;SDS011;41118;44.634;11.182;2023-07-24T11:34:21;12.60;;;3.20;;
55254;SDS011;41118;44.634;11.182;2023-07-24T11:36:48;14.50;;;4.57;;
55254;SDS011;41118;44.634;11.182;2023-07-24T11:39:21;13.77;;;3.10;;
55254;SDS011;41118;44.634;11.182;2023-07-24T11:41:47;10.63;;;2.70;;
55254;SDS011;41118;44.634;11.182;2023-07-24T11:44:13;13.25;;;4.93;;
55254;SDS011;41118;44.634;11.182;2023-07-24T11:46:42;17.88;;;4.32;;
55254;SDS011;41118;44.634;11.182;2023-07-24T11:49:08;8.85;;;2.80;;
55254;SDS011;41118;44.634;11.182;2023-07-24T11:51:36;13.10;;;3.58;;
55254;SDS011;41118;44.634;11.182;2023-07-24T11:54:06;9.13;;;2.47;;
55254;SDS011;41118;44.634;11.182;2023-07-24T11:56:32;13.38;;;3.53;;
55254;SDS011;41118;44.634;11.182;2023-07-24T11:59:08;10.10;;;2.22;;
55254;SDS011;41118;44.634;11.182;2023-07-24T12:01:34;13.68;;;2.22;;
55254;SDS011;41118;44.634;11.182;2023-07-24T12:04:01;8.82;;;2.50;;
55254;SDS011;41118;44.634;11.182;2023-07-24T12:06:30;10.55;;;2.92;;
55254;SDS011;41118;44.634;11.182;2023-07-24T12:09:01;7.90;;;2.38;;
55254;SDS011;41118;44.634;11.182;2023-07-24T12:11:28;10.82;;;2.10;;
55254;SDS011;41118;44.634;11.182;2023-07-24T12:13:54;10.27;;;1.73;;
55254;SDS011;41118;44.634;11.182;2023-07-24T12:16:20;12.77;;;2.53;;
55254;SDS011;41118;44.634;11.182;2023-07-24T12:18:46;12.77;;;2.15;;
55254;SDS011;41118;44.634;11.182;2023-07-24T12:21:12;13.57;;;3.40;;
55254;SDS011;41118;44.634;11.182;2023-07-24T12:23:39;11.57;;;2.08;;
55254;SDS011;41118;44.634;11.182;2023-07-24T12:26:05;12.60;;;2.15;;
55254;SDS011;41118;44.634;11.182;2023-07-24T12:28:32;8.43;;;1.67;;
55254;SDS011;41118;44.634;11.182;2023-07-24T12:30:58;10.20;;;2.78;;
55254;SDS011;41118;44.634;11.182;2023-07-24T12:33:24;12.00;;;1.88;;
55254;SDS011;41118;44.634;11.182;2023-07-24T12:35:51;11.27;;;2.30;;
55254;SDS011;41118;44.634;11.182;2023-07-24T12:38:18;13.27;;;2.35;;
55254;SDS011;41118;44.634;11.182;2023-07-24T12:40:44;14.23;;;2.20;;
55254;SDS011;41118;44.634;11.182;2023-07-24T12:43:10;8.52;;;1.58;;
55254;SDS011;41118;44.634;11.182;2023-07-24T12:45:36;8.18;;;1.63;;
55254;SDS011;41118;44.634;11.182;2023-07-24T12:48:02;9.13;;;2.75;;
55254;SDS011;41118;44.634;11.182;2023-07-24T12:50:28;9.63;;;2.78;;
55254;SDS011;41118;44.634;11.182;2023-07-24T12:52:55;7.63;;;1.60;;
55254;SDS011;41118;44.634;11.182;2023-07-24T12:55:21;9.23;;;2.17;;
55254;SDS011;41118;44.634;11.182;2023-07-24T12:57:47;9.18;;;1.50;;
55254;SDS011;41118;44.634;11.182;2023-07-24T13:00:13;9.93;;;2.05;;
55254;SDS011;41118;44.634;11.182;2023-07-24T13:02:39;12.35;;;1.88;;
55254;SDS011;41118;44.634;11.182;2023-07-24T13:05:06;7.03;;;1.92;;
55254;SDS011;41118;44.634;11.182;2023-07-24T13:07:32;10.13;;;1.40;;
55254;SDS011;41118;44.634;11.182;2023-07-24T13:09:59;8.02;;;1.17;;
55254;SDS011;41118;44.634;11.182;2023-07-24T13:12:25;10.13;;;0.75;;
55254;SDS011;41118;44.634;11.182;2023-07-24T13:14:51;6.18;;;0.77;;
55254;SDS011;41118;44.634;11.182;2023-07-24T13:17:17;14.52;;;1.48;;
55254;SDS011;41118;44.634;11.182;2023-07-24T13:19:44;4.00;;;0.95;;
55254;SDS011;41118;44.634;11.182;2023-07-24T13:22:10;5.97;;;1.00;;
55254;SDS011;41118;44.634;11.182;2023-07-24T13:24:37;6.00;;;0.80;;
55254;SDS011;41118;44.634;11.182;2023-07-24T13:27:03;5.93;;;0.73;;
55254;SDS011;41118;44.634;11.182;2023-07-24T13:29:29;10.13;;;1.65;;
55254;SDS011;41118;44.634;11.182;2023-07-24T13:31:56;5.78;;;0.60;;
55254;SDS011;41118;44.634;11.182;2023-07-24T13:34:23;9.88;;;0.57;;
55254;SDS011;41118;44.634;11.182;2023-07-24T13:36:49;7.47;;;1.13;;
55254;SDS011;41118;44.634;11.182;2023-07-24T13:39:15;12.23;;;1.80;;
55254;SDS011;41118;44.634;11.182;2023-07-24T13:41:42;6.97;;;1.38;;
55254;SDS011;41118;44.634;11.182;2023-07-24T13:44:09;5.25;;;0.75;;
55254;SDS011;41118;44.634;11.182;2023-07-24T13:46:35;10.15;;;2.15;;
55254;SDS011;41118;44.634;11.182;2023-07-24T13:49:01;7.00;;;1.08;;
55254;SDS011;41118;44.634;11.182;2023-07-24T13:51:31;8.68;;;0.82;;
55254;SDS011;41118;44.634;11.182;2023-07-24T13:53:57;14.52;;;1.42;;
55254;SDS011;41118;44.634;11.182;2023-07-24T13:56:24;12.07;;;1.17;;
55254;SDS011;41118;44.634;11.182;2023-07-24T13:58:52;10.85;;;0.50;;
55254;SDS011;41118;44.634;11.182;2023-07-24T14:01:18;6.93;;;0.85;;
55254;SDS011;41118;44.634;11.182;2023-07-24T14:03:44;4.03;;;0.45;;
55254;SDS011;41118;44.634;11.182;2023-07-24T14:06:11;3.72;;;0.60;;
55254;SDS011;41118;44.634;11.182;2023-07-24T14:08:46;3.10;;;0.73;;
55254;SDS011;41118;44.634;11.182;2023-07-24T14:11:18;10.57;;;1.02;;
55254;SDS011;41118;44.634;11.182;2023-07-24T14:13:54;8.73;;;1.05;;
55254;SDS011;41118;44.634;11.182;2023-07-24T14:16:24;6.30;;;0.95;;
55254;SDS011;41118;44.634;11.182;2023-07-24T14:18:58;8.50;;;1.58;;
55254;SDS011;41118;44.634;11.182;2023-07-24T14:21:24;9.30;;;1.40;;
55254;SDS011;41118;44.634;11.182;2023-07-24T14:23:51;8.13;;;1.52;;